BUD weather

Budapest Liszt Ferenc International Airport
Budapest, Pest, Hungary

Public forecast

Using degrees Celsius for public forecast. Weather courtesy of forecast.io.

Current aviation weather report (METAR) for Budapest Liszt Ferenc International Airport

Retrieved 2019/10/20 01:30 UTC (23 minutes ago):

LHBP 200130Z VRB03KT CAVOK 10/08 Q1017 NOSIG

Aviation forecast (TAF) for Budapest Liszt Ferenc International Airport

Retrieved 2019-10-20 00:27 UTC (1 hour ago):

TAF TAF LHBP 192315Z 2000/2024 15005KT CAVOK TEMPO 2003/2006 MIFG BECMG 2008/2011 18013KT BECMG 2015/2017 15005KT